HECA

Cairo International Airport

Cairo, Egypt
METAR HECA 230730Z 07007KT 6000 NSC 19/15 Q1008 NOSIG
Observed Flight Rules
Feb-23 @ 07:30 UTC (28 minutes ago) Marginal Visual Flight Rules
Wind Visibility Clouds
70° at 7 knots 6,003 meters
  • Clear skies
Temperatures Readings
Current 19°C / 66°F
Dewpoint 15°C / 59°F
Humidity 78%
Altimeter 29.76" Hg
Pressure 1008 hPa
Elevation 74
METAR HECA 230730Z 07007KT 6000 NSC 19/15 Q1008 NOSIG
Observed Flight Rules
Feb-23 @ 07:30 UTC
(28 minutes ago)
MVFR
Wind Visibility
70° at 7 knots 6,003 meters
Clouds
  • Clear skies
Temperature Dewpoint
19°C / 66°F 15°C / 59°F
Humidity Altimeter Pressure
78% 29.76" Hg 1008 hPa